Amalga, UT

4:52 PM MST on March 03, 2015 (GMT -0700)
Northwest Smithfield | Change Station
CLOSE
Current Station
Personal Weather Station
Location: Smithfield, UT
Elevation: 4590 ft
Nearby Weather Stations

Elev 4590 ft 41.84 °N, 111.84 °W | Updated 2 minutes ago

Partly Cloudy
Partly Cloudy
37.8 °F
Feels Like 38 °F
N
1.7
Wind Variable Wind from WNW

Today
High -- | Low -- °F
--% Chance of Precip.
Yesterday
High -- | Low -- °F
Precip. -- in
6:59 AM 6:20 PM
Waxing Gibbous, 97% visible
Pressure 29.93 in
Visibility 10.0 miles
Clouds Few 5500 ft
Windchill 38 °F
Dew Point 22 °F
Humidity 53%
Rainfall 0.21 in
Snow Depth Not available.
UV 2 out of 12
Pollen .30 out of 12
Air Quality Not available.
Flu Activity Not available.
METAR KLGU 032251Z AUTO 02008KT 10SM FEW055 02/M08 A2990 RMK AO2 SLP133 T00171078

More Conditions Fewer Conditions

Pressure 29.93 in
Visibility 10.0 miles
Clouds Few 5500 ft
Windchill 38 °F
Dew Point 22 °F
Humidity 53%
Rainfall 0.21 in
Snow Depth Not available.
UV 2 out of 12
Pollen .30 out of 12
Air Quality Not available.
Flu Activity Not available.
METAR KLGU 032251Z AUTO 02008KT 10SM FEW055 02/M08 A2990 RMK AO2 SLP133 T00171078

More Conditions Fewer Conditions

10-Day Weather Forecast

Almanac

Astronomy

Mar. 03, 2015 Rise Set
Actual Time
Civil Twilight
Nautical Twilight
Astronomical Twilight
Moon
Length of Visible Light
Length of Day
Tomorrow will be .
, % of the Moon is Illuminated

Today's Extremes

State Highs State Lows

Community

WunderPhotos

Upload Photos

1,802,305 photos uploaded!

WunderBlogs® & News

Nearby

Air Quality

  Air Quality AQ Index Pollutant
Not available.

Snow Depth

Station Depth Elevation

Earthquake Activity

City Distance Mag. Time & Date
Minimum magnitude displayed is 2.5.

Coastal Water Temperatures

Place Temperature

Nearby Weather Stations